createdAt,value
2022-11-10T00:00:37.261Z,8.33
2022-11-10T00:03:23.788Z,8.70
2022-11-10T00:06:10.608Z,8.50
2022-11-10T00:08:58.061Z,8.50
2022-11-10T00:11:44.687Z,8.13
2022-11-10T00:14:48.670Z,8.00
2022-11-10T00:17:36.576Z,7.90
2022-11-10T00:20:23.106Z,8.63
2022-11-10T00:23:09.203Z,8.23
2022-11-10T00:25:57.084Z,8.13
2022-11-10T00:28:43.443Z,7.73
2022-11-10T00:31:29.678Z,7.23
2022-11-10T00:34:16.612Z,7.47
2022-11-10T00:37:02.530Z,7.37
2022-11-10T00:39:49.023Z,7.80
2022-11-10T00:42:36.370Z,7.63
2022-11-10T00:45:22.825Z,7.80
2022-11-10T00:48:08.995Z,7.60
2022-11-10T00:50:55.284Z,7.90
2022-11-10T00:53:41.571Z,9.80
2022-11-10T00:56:27.956Z,10.33
2022-11-10T00:59:15.547Z,10.47
2022-11-10T01:02:01.726Z,9.60
2022-11-10T01:04:47.919Z,9.77
2022-11-10T01:07:34.182Z,9.87
2022-11-10T01:10:20.563Z,9.83
2022-11-10T01:13:06.858Z,9.43
2022-11-10T01:15:54.404Z,9.83
2022-11-10T01:18:41.027Z,9.40
2022-11-10T01:21:28.107Z,8.90
2022-11-10T01:24:14.231Z,8.80
2022-11-10T01:27:00.467Z,8.30
2022-11-10T01:29:46.726Z,7.63
2022-11-10T01:32:34.423Z,8.03
2022-11-10T01:35:20.462Z,7.87
2022-11-10T01:38:06.748Z,7.17
2022-11-10T01:40:52.959Z,7.13
2022-11-10T01:43:39.623Z,7.27
2022-11-10T01:46:26.224Z,6.40
2022-11-10T01:49:14.454Z,6.93
2022-11-10T01:52:03.124Z,5.73
2022-11-10T01:54:50.004Z,5.67
2022-11-10T01:57:36.778Z,6.27
2022-11-10T02:00:23.213Z,5.83
2022-11-10T02:03:12.538Z,5.70
2022-11-10T02:05:59.954Z,6.13
2022-11-10T02:08:46.586Z,5.97
2022-11-10T02:11:33.091Z,6.43
2022-11-10T02:14:19.108Z,6.57
2022-11-10T02:17:05.557Z,7.00
2022-11-10T02:19:52.475Z,8.00
2022-11-10T02:22:39.962Z,9.53
2022-11-10T02:25:28.076Z,8.00
2022-11-10T02:28:14.180Z,8.43
2022-11-10T02:31:00.344Z,8.10
2022-11-10T02:33:46.863Z,7.23
2022-11-10T02:36:33.206Z,8.17
2022-11-10T02:39:20.763Z,7.87
2022-11-10T02:42:10.198Z,8.60
2022-11-10T02:44:56.740Z,8.00
2022-11-10T02:47:42.923Z,8.13
2022-11-10T02:50:29.091Z,8.47
2022-11-10T02:53:15.367Z,8.93
2022-11-10T02:56:02.849Z,10.00
2022-11-10T02:58:49.043Z,9.83
2022-11-10T03:01:35.382Z,9.17
2022-11-10T03:04:21.548Z,9.70
2022-11-10T03:07:07.818Z,9.93
2022-11-10T03:09:54.248Z,10.43
2022-11-10T03:12:41.623Z,9.83
2022-11-10T03:15:28.395Z,10.13
2022-11-10T03:18:14.818Z,10.40
2022-11-10T03:21:01.029Z,10.97
2022-11-10T03:23:47.320Z,9.53
2022-11-10T03:26:33.745Z,10.23
2022-11-10T03:29:21.467Z,9.50
2022-11-10T03:32:07.524Z,10.30
2022-11-10T03:34:53.819Z,9.60
2022-11-10T03:37:42.002Z,9.97
2022-11-10T03:40:28.346Z,9.93
2022-11-10T03:43:14.583Z,10.03
2022-11-10T03:46:02.267Z,9.07
2022-11-10T03:48:53.219Z,8.80
2022-11-10T03:51:39.860Z,9.07
2022-11-10T03:54:26.237Z,8.43
2022-11-10T03:57:12.417Z,7.93
2022-11-10T03:59:58.682Z,8.20
2022-11-10T04:02:46.444Z,7.53
2022-11-10T04:05:50.122Z,7.20
2022-11-10T04:08:53.810Z,7.57
2022-11-10T04:12:10.322Z,10.07
2022-11-10T04:15:48.297Z,7.50
2022-11-10T04:21:59.835Z,7.10
2022-11-10T04:37:53.009Z,7.63
2022-11-10T04:44:36.876Z,7.77
2022-11-10T04:47:47.791Z,8.70
2022-11-10T05:00:19.240Z,7.57
2022-11-10T05:03:17.100Z,8.03
2022-11-10T05:06:20.885Z,7.53
2022-11-10T05:12:12.427Z,7.30
2022-11-10T05:15:14.351Z,7.40
2022-11-10T05:21:53.370Z,6.37
2022-11-10T05:25:04.461Z,6.73
2022-11-10T05:28:16.367Z,6.60
2022-11-10T05:31:20.557Z,6.13
2022-11-10T05:34:39.989Z,7.00
2022-11-10T05:37:30.541Z,5.73
2022-11-10T05:40:43.885Z,6.47
2022-11-10T05:43:44.183Z,7.93
2022-11-10T05:50:03.915Z,6.47
2022-11-10T05:52:57.345Z,7.23
2022-11-10T05:56:23.290Z,7.20
2022-11-10T05:59:19.695Z,7.33
2022-11-10T06:02:08.531Z,7.67
2022-11-10T06:04:56.596Z,6.40
2022-11-10T06:07:42.828Z,7.10
2022-11-10T06:10:28.756Z,6.67
2022-11-10T06:13:16.443Z,6.43
2022-11-10T06:16:03.044Z,7.17
2022-11-10T06:18:49.128Z,6.90
2022-11-10T06:21:35.416Z,7.13
2022-11-10T06:24:21.334Z,7.03
2022-11-10T06:27:07.355Z,7.33
2022-11-10T06:29:55.151Z,7.47
2022-11-10T06:32:43.143Z,7.80
2022-11-10T06:35:30.144Z,8.80
2022-11-10T06:38:16.337Z,8.77
2022-11-10T06:41:02.319Z,8.07
2022-11-10T06:43:48.582Z,8.47
2022-11-10T06:46:42.003Z,8.13
2022-11-10T06:49:28.645Z,7.97
2022-11-10T06:52:14.958Z,8.30
2022-11-10T06:55:01.149Z,9.83
2022-11-10T06:57:47.435Z,9.03
2022-11-10T07:00:33.671Z,8.67
2022-11-10T07:03:21.528Z,9.43
2022-11-10T07:06:08.255Z,9.27
2022-11-10T07:08:54.336Z,8.97
2022-11-10T07:11:40.458Z,8.50
2022-11-10T07:14:26.878Z,8.77
2022-11-10T07:17:12.962Z,9.00
2022-11-10T07:20:00.598Z,9.67
2022-11-10T07:22:46.856Z,11.33
2022-11-10T07:25:35.530Z,12.13
2022-11-10T07:28:24.609Z,13.73
2022-11-10T07:31:14.090Z,16.40
2022-11-10T07:34:00.318Z,13.43
2022-11-10T07:36:48.206Z,18.40
2022-11-10T07:39:34.474Z,14.20
2022-11-10T07:42:20.870Z,17.33
2022-11-10T07:45:07.708Z,13.30
2022-11-10T07:47:53.811Z,13.43
2022-11-10T07:50:39.872Z,15.57
2022-11-10T07:53:28.338Z,16.13
2022-11-10T07:56:14.936Z,11.87
2022-11-10T07:59:01.740Z,17.57
2022-11-10T08:01:48.063Z,57.43
2022-11-10T08:04:34.132Z,43.23
2022-11-10T08:07:20.464Z,49.03
2022-11-10T08:10:09.340Z,38.00
2022-11-10T08:12:56.547Z,31.33
2022-11-10T08:15:42.880Z,24.50
2022-11-10T08:18:34.956Z,42.03
2022-11-10T08:21:21.362Z,26.93
2022-11-10T08:24:08.543Z,18.63
2022-11-10T08:26:56.847Z,19.57
2022-11-10T08:29:42.893Z,13.10
2022-11-10T08:32:29.185Z,15.27
2022-11-10T08:35:15.515Z,14.07
2022-11-10T08:38:09.469Z,12.40
2022-11-10T08:40:56.920Z,10.90
2022-11-10T08:43:44.551Z,10.60
2022-11-10T08:46:30.538Z,11.07
2022-11-10T08:49:16.928Z,9.67
2022-11-10T08:52:03.181Z,10.17
2022-11-10T08:54:49.441Z,7.97
2022-11-10T08:57:35.837Z,7.90
2022-11-10T09:00:23.770Z,8.03
2022-11-10T09:03:12.074Z,8.37
2022-11-10T09:05:58.948Z,8.47
2022-11-10T09:08:45.006Z,10.23
2022-11-10T09:11:31.464Z,8.70
2022-11-10T09:14:17.480Z,8.17
2022-11-10T09:17:05.139Z,7.53
2022-11-10T09:19:51.443Z,7.83
2022-11-10T09:22:37.891Z,6.87
2022-11-10T09:25:24.455Z,8.03
2022-11-10T09:28:12.654Z,8.17
2022-11-10T09:30:58.880Z,9.30
2022-11-10T09:33:46.583Z,8.10
2022-11-10T09:36:32.411Z,7.77
2022-11-10T09:39:19.313Z,7.87
2022-11-10T09:42:06.341Z,7.73
2022-11-10T09:44:54.589Z,7.27
2022-11-10T09:47:56.888Z,6.50
2022-11-10T09:50:49.583Z,6.77
2022-11-10T09:53:38.034Z,7.57
2022-11-10T09:56:28.560Z,7.00
2022-11-10T09:59:17.341Z,7.20
2022-11-10T10:02:05.167Z,7.20
2022-11-10T10:05:08.234Z,6.67
2022-11-10T10:07:59.579Z,8.67
2022-11-10T10:10:46.565Z,7.97
2022-11-10T10:13:40.953Z,7.80
2022-11-10T10:16:33.307Z,7.60
2022-11-10T10:19:23.832Z,7.63
2022-11-10T10:22:27.193Z,7.53
2022-11-10T10:25:19.153Z,7.47
2022-11-10T10:28:07.789Z,7.33
2022-11-10T10:30:54.621Z,7.17
2022-11-10T10:33:40.986Z,6.90
2022-11-10T10:36:29.045Z,7.53
2022-11-10T10:39:17.542Z,7.27
2022-11-10T10:42:05.700Z,7.57
2022-11-10T10:45:14.192Z,7.83
2022-11-10T10:48:01.585Z,8.10
2022-11-10T10:50:49.071Z,7.47
2022-11-10T10:53:45.580Z,7.70
2022-11-10T10:56:33.653Z,7.53
2022-11-10T10:59:23.279Z,6.67
2022-11-10T11:02:22.416Z,8.13
2022-11-10T11:05:13.231Z,7.40
2022-11-10T11:08:00.280Z,8.13
2022-11-10T11:10:47.511Z,8.30
2022-11-10T11:13:33.843Z,8.73
2022-11-10T11:16:21.781Z,7.80
2022-11-10T11:19:09.370Z,7.93
2022-11-10T11:22:25.639Z,8.50
2022-11-10T11:25:17.241Z,8.50
2022-11-10T11:28:08.159Z,9.40
2022-11-10T11:31:02.752Z,9.23
2022-11-10T11:33:52.743Z,7.93
2022-11-10T11:36:41.819Z,8.63
2022-11-10T11:39:36.785Z,8.53
2022-11-10T11:42:29.110Z,7.97
2022-11-10T11:45:17.760Z,7.13
2022-11-10T11:48:15.803Z,9.40
2022-11-10T11:51:07.773Z,8.23
2022-11-10T11:54:03.587Z,8.87
2022-11-10T11:56:50.855Z,8.00
2022-11-10T11:59:44.420Z,8.30
2022-11-10T12:02:52.758Z,8.40
2022-11-10T12:05:46.996Z,7.97
2022-11-10T12:08:38.906Z,7.70
2022-11-10T12:11:30.091Z,7.77
2022-11-10T12:14:20.452Z,7.40
2022-11-10T12:17:11.340Z,7.30
2022-11-10T12:20:02.291Z,7.97
2022-11-10T12:22:52.682Z,7.50
2022-11-10T12:25:43.542Z,6.77
2022-11-10T12:28:32.389Z,6.50
2022-11-10T12:31:21.652Z,6.63
2022-11-10T12:34:10.664Z,5.70
2022-11-10T12:36:57.672Z,6.20
2022-11-10T12:39:47.451Z,6.73
2022-11-10T12:42:37.593Z,5.87
2022-11-10T12:45:25.271Z,6.03
2022-11-10T12:48:12.640Z,5.83
2022-11-10T12:51:03.569Z,6.40
2022-11-10T12:53:50.435Z,6.17
2022-11-10T12:56:39.098Z,8.77
2022-11-10T12:59:32.860Z,7.73
2022-11-10T13:02:23.092Z,7.67
2022-11-10T13:05:28.141Z,10.20
2022-11-10T13:08:24.142Z,9.30
2022-11-10T13:11:22.210Z,10.03
2022-11-10T13:14:20.781Z,10.13
2022-11-10T13:17:09.042Z,6.63
2022-11-10T13:19:55.913Z,6.27
2022-11-10T13:22:43.364Z,5.70
2022-11-10T13:25:54.194Z,6.50
2022-11-10T13:28:57.059Z,4.60
2022-11-10T13:31:52.361Z,5.37
2022-11-10T13:34:41.999Z,4.93
2022-11-10T13:37:45.002Z,7.57
2022-11-10T13:40:34.057Z,4.67
2022-11-10T13:43:24.953Z,5.10
2022-11-10T13:46:11.193Z,4.60
2022-11-10T13:49:04.310Z,5.30
2022-11-10T13:51:57.222Z,5.87
2022-11-10T13:55:01.502Z,6.03
2022-11-10T13:57:57.494Z,6.20
2022-11-10T14:00:49.109Z,5.90
2022-11-10T14:03:55.379Z,5.33
2022-11-10T14:06:44.319Z,5.60
2022-11-10T14:09:35.006Z,5.30
2022-11-10T14:12:57.827Z,5.17
2022-11-10T14:15:45.159Z,4.73
2022-11-10T14:18:39.515Z,4.30
2022-11-10T14:21:31.360Z,5.83
2022-11-10T14:24:20.021Z,6.00
2022-11-10T14:27:09.109Z,5.30
2022-11-10T14:30:14.140Z,5.30
2022-11-10T14:33:01.526Z,5.10
2022-11-10T14:35:49.075Z,5.63
2022-11-10T14:38:37.075Z,5.50
2022-11-10T14:41:23.766Z,5.17
2022-11-10T14:44:15.479Z,4.83
2022-11-10T14:47:14.619Z,4.93
2022-11-10T14:50:04.507Z,5.70
2022-11-10T14:52:52.703Z,5.43
2022-11-10T14:55:39.107Z,6.97
2022-11-10T14:58:26.271Z,6.70
2022-11-10T15:01:24.459Z,6.37
2022-11-10T15:04:12.548Z,6.20
2022-11-10T15:06:59.113Z,5.93
2022-11-10T15:10:00.022Z,6.40
2022-11-10T15:12:58.819Z,6.67
2022-11-10T15:15:44.807Z,6.43
2022-11-10T15:18:32.355Z,6.40
2022-11-10T15:21:19.599Z,7.10
2022-11-10T15:24:06.774Z,6.70
2022-11-10T15:26:53.027Z,6.73
2022-11-10T15:29:38.883Z,6.60
2022-11-10T15:32:26.938Z,6.80
2022-11-10T15:35:26.983Z,7.93
2022-11-10T15:38:23.599Z,6.80
2022-11-10T15:41:12.363Z,6.90
2022-11-10T15:43:58.240Z,7.60
2022-11-10T15:46:45.088Z,7.10
2022-11-10T15:49:32.879Z,6.73
2022-11-10T15:52:22.065Z,7.13
2022-11-10T15:55:19.635Z,15.63
2022-11-10T15:58:06.905Z,28.87
2022-11-10T16:00:53.151Z,24.57
2022-11-10T16:03:39.275Z,32.67
2022-11-10T16:06:25.487Z,47.57
2022-11-10T16:09:13.623Z,59.43
2022-11-10T16:11:59.854Z,33.40
2022-11-10T16:14:47.746Z,17.07
2022-11-10T16:17:33.703Z,10.30
2022-11-10T16:20:19.922Z,9.00
2022-11-10T16:23:06.251Z,9.17
2022-11-10T16:25:55.097Z,8.73
2022-11-10T16:28:44.033Z,9.67
2022-11-10T16:31:31.763Z,9.40
2022-11-10T16:34:18.540Z,9.70
2022-11-10T16:37:04.738Z,9.53
2022-11-10T16:39:50.895Z,8.90
2022-11-10T16:42:38.539Z,9.60
2022-11-10T16:45:29.921Z,11.97
2022-11-10T16:48:17.818Z,9.03
2022-11-10T16:51:04.004Z,9.03
2022-11-10T16:53:50.524Z,8.23
2022-11-10T16:56:36.512Z,8.03
2022-11-10T16:59:24.111Z,9.47
2022-11-10T17:02:22.156Z,9.57
2022-11-10T17:05:10.543Z,9.30
2022-11-10T17:07:56.679Z,9.40
2022-11-10T17:10:42.570Z,9.30
2022-11-10T17:13:28.668Z,9.17
2022-11-10T17:16:28.040Z,9.13
2022-11-10T17:19:17.300Z,9.10
2022-11-10T17:22:03.202Z,9.90
2022-11-10T17:24:52.455Z,11.87
2022-11-10T17:27:38.602Z,12.40
2022-11-10T17:30:24.967Z,14.57
2022-11-10T17:33:12.868Z,12.33
2022-11-10T17:36:00.038Z,13.47
2022-11-10T17:38:48.131Z,15.43
2022-11-10T17:41:34.603Z,15.93
2022-11-10T17:44:20.845Z,18.43
2022-11-10T17:47:06.774Z,19.63
2022-11-10T17:49:54.535Z,16.13
2022-11-10T17:52:40.932Z,15.00
2022-11-10T17:55:33.750Z,12.70
2022-11-10T17:58:20.447Z,13.57
2022-11-10T18:01:08.637Z,12.77
2022-11-10T18:03:54.591Z,11.97
2022-11-10T18:06:42.147Z,12.33
2022-11-10T18:09:28.250Z,12.17
2022-11-10T18:12:14.486Z,17.07
2022-11-10T18:15:00.610Z,15.70
2022-11-10T18:17:46.562Z,16.33
2022-11-10T18:20:32.838Z,14.97
2022-11-10T18:23:21.096Z,15.97
2022-11-10T18:26:08.472Z,15.73
2022-11-10T18:28:54.623Z,19.17
2022-11-10T18:31:40.742Z,16.37
2022-11-10T18:34:27.034Z,16.13
2022-11-10T18:37:13.228Z,15.93
2022-11-10T18:40:01.758Z,17.10
2022-11-10T18:42:47.924Z,19.73
2022-11-10T18:45:34.043Z,17.77
2022-11-10T18:48:23.229Z,14.13
2022-11-10T18:51:13.625Z,13.80
2022-11-10T18:53:59.741Z,13.20
2022-11-10T18:56:47.184Z,12.87
2022-11-10T18:59:33.283Z,11.90
2022-11-10T19:02:19.407Z,11.50
2022-11-10T19:05:05.791Z,11.10
2022-11-10T19:07:51.611Z,12.53
2022-11-10T19:10:42.198Z,11.57
2022-11-10T19:13:29.536Z,12.57
2022-11-10T19:16:17.101Z,13.20
2022-11-10T19:19:02.951Z,15.47
2022-11-10T19:21:49.172Z,15.20
2022-11-10T19:24:53.711Z,15.27
2022-11-10T19:27:42.075Z,13.60
2022-11-10T19:30:29.772Z,13.53
2022-11-10T19:33:15.631Z,14.40
2022-11-10T19:36:02.497Z,11.70
2022-11-10T19:38:48.416Z,10.90
2022-11-10T19:41:34.691Z,10.53
2022-11-10T19:44:20.984Z,10.53
2022-11-10T19:47:08.530Z,10.57
2022-11-10T19:49:54.603Z,9.93
2022-11-10T19:52:40.761Z,9.87
2022-11-10T19:55:26.782Z,10.40
2022-11-10T19:58:13.044Z,10.53
2022-11-10T20:01:00.069Z,10.80
2022-11-10T20:03:49.094Z,11.20
2022-11-10T20:06:35.624Z,10.40
2022-11-10T20:09:21.784Z,10.87
2022-11-10T20:12:08.059Z,11.77
2022-11-10T20:14:53.962Z,12.37
2022-11-10T20:17:40.174Z,11.70
2022-11-10T20:20:27.558Z,10.20
2022-11-10T20:23:13.629Z,9.47
2022-11-10T20:26:03.930Z,9.47
2022-11-10T20:28:50.413Z,10.37
2022-11-10T20:31:38.420Z,9.30
2022-11-10T20:34:24.546Z,9.67
2022-11-10T20:37:12.031Z,9.10
2022-11-10T20:39:58.278Z,10.13
2022-11-10T20:42:44.657Z,8.67
2022-11-10T20:45:30.999Z,9.70
2022-11-10T20:48:16.807Z,10.67
2022-11-10T20:51:09.059Z,10.07
2022-11-10T20:53:56.964Z,10.33
2022-11-10T20:56:42.687Z,9.00
2022-11-10T20:59:28.906Z,9.07
2022-11-10T21:02:15.033Z,9.33
2022-11-10T21:05:01.646Z,9.37
2022-11-10T21:07:47.967Z,8.73
2022-11-10T21:10:35.167Z,9.07
2022-11-10T21:13:22.541Z,8.67
2022-11-10T21:16:08.392Z,9.37
2022-11-10T21:18:55.920Z,8.97
2022-11-10T21:21:41.762Z,9.20
2022-11-10T21:24:28.037Z,8.97
2022-11-10T21:27:15.579Z,8.67
2022-11-10T21:30:01.847Z,9.40
2022-11-10T21:32:47.890Z,9.13
2022-11-10T21:35:38.237Z,8.10
2022-11-10T21:38:24.435Z,9.17
2022-11-10T21:41:10.569Z,8.37
2022-11-10T21:43:58.031Z,7.97
2022-11-10T21:46:44.128Z,7.87
2022-11-10T21:49:30.262Z,9.17
2022-11-10T21:52:16.368Z,18.67
2022-11-10T21:55:02.446Z,9.03
2022-11-10T21:57:48.594Z,26.47
2022-11-10T22:00:36.299Z,11.37
2022-11-10T22:03:22.853Z,10.80
2022-11-10T22:06:10.412Z,12.80
2022-11-10T22:08:56.532Z,7.40
2022-11-10T22:12:00.243Z,8.37
2022-11-10T22:15:04.135Z,8.23
2022-11-10T22:18:09.374Z,10.43
2022-11-10T22:20:55.623Z,9.43
2022-11-10T22:23:59.752Z,11.10
2022-11-10T22:26:45.950Z,9.17
2022-11-10T22:29:33.018Z,9.50
2022-11-10T22:32:19.169Z,9.23
2022-11-10T22:35:07.249Z,10.70
2022-11-10T22:37:53.326Z,10.93
2022-11-10T22:40:57.145Z,17.07
2022-11-10T22:44:00.811Z,10.17
2022-11-10T22:46:48.194Z,17.50
2022-11-10T22:49:34.034Z,19.63
2022-11-10T22:52:21.584Z,10.57
2022-11-10T22:55:08.162Z,12.17
2022-11-10T22:57:54.070Z,13.17
2022-11-10T23:00:40.231Z,12.37
2022-11-10T23:03:26.498Z,8.53
2022-11-10T23:06:12.981Z,9.20
2022-11-10T23:09:00.610Z,8.63
2022-11-10T23:11:48.228Z,8.27
2022-11-10T23:14:34.592Z,8.53
2022-11-10T23:17:20.680Z,8.47
2022-11-10T23:20:07.284Z,10.43
2022-11-10T23:22:55.371Z,11.03
2022-11-10T23:25:42.620Z,14.73
2022-11-10T23:28:28.999Z,10.90
2022-11-10T23:31:16.198Z,11.10
2022-11-10T23:34:02.379Z,12.67
2022-11-10T23:36:48.526Z,9.30
2022-11-10T23:39:34.726Z,9.87
2022-11-10T23:42:22.269Z,24.17
2022-11-10T23:45:09.155Z,12.70
2022-11-10T23:47:55.029Z,9.80
2022-11-10T23:50:41.260Z,15.30
2022-11-10T23:53:27.488Z,17.90
2022-11-10T23:56:14.359Z,9.47
2022-11-10T23:59:01.772Z,14.10
